createdAt,value
2022-09-28T00:02:14.913Z,7.80
2022-09-28T00:04:41.771Z,7.80
2022-09-28T00:07:08.411Z,7.70
2022-09-28T00:09:35.047Z,7.80
2022-09-28T00:12:01.860Z,7.80
2022-09-28T00:14:28.534Z,7.80
2022-09-28T00:16:55.308Z,7.80
2022-09-28T00:19:22.002Z,7.80
2022-09-28T00:21:48.793Z,7.80
2022-09-28T00:24:25.228Z,7.80
2022-09-28T00:26:56.009Z,7.80
2022-09-28T00:29:29.938Z,7.80
2022-09-28T00:32:00.115Z,7.80
2022-09-28T00:34:27.360Z,7.80
2022-09-28T00:36:54.047Z,7.80
2022-09-28T00:39:21.443Z,7.90
2022-09-28T00:41:48.331Z,7.90
2022-09-28T00:44:35.849Z,7.90
2022-09-28T00:47:39.129Z,7.90
2022-09-28T00:50:09.169Z,7.90
2022-09-28T00:52:41.086Z,7.90
2022-09-28T00:55:11.157Z,7.90
2022-09-28T00:57:40.668Z,7.90
2022-09-28T01:00:08.301Z,7.90
2022-09-28T01:02:35.146Z,7.90
2022-09-28T01:05:04.163Z,7.90
2022-09-28T01:07:32.386Z,7.90
2022-09-28T01:09:59.357Z,7.90
2022-09-28T01:12:25.997Z,7.90
2022-09-28T01:14:53.035Z,7.90
2022-09-28T01:17:33.267Z,7.90
2022-09-28T01:20:28.193Z,7.90
2022-09-28T01:23:25.418Z,7.90
2022-09-28T01:26:26.910Z,7.90
2022-09-28T01:29:03.533Z,7.90
2022-09-28T01:31:33.642Z,7.90
2022-09-28T01:34:19.190Z,7.90
2022-09-28T01:36:52.184Z,7.90
2022-09-28T01:39:26.604Z,7.90
2022-09-28T01:41:57.591Z,7.90
2022-09-28T01:44:24.562Z,8.00
2022-09-28T01:46:52.534Z,8.00
2022-09-28T01:49:34.911Z,8.10
2022-09-28T01:52:10.912Z,8.10
2022-09-28T01:54:43.194Z,8.10
2022-09-28T01:57:32.441Z,8.20
2022-09-28T02:00:10.804Z,8.30
2022-09-28T02:02:48.474Z,8.30
2022-09-28T02:05:25.650Z,8.30
2022-09-28T02:08:02.529Z,8.40
2022-09-28T02:10:34.060Z,8.40
2022-09-28T02:13:14.040Z,8.50
2022-09-28T02:15:54.020Z,8.50
2022-09-28T02:18:20.834Z,8.50
2022-09-28T02:20:53.658Z,8.60
2022-09-28T02:23:22.658Z,8.60
2022-09-28T02:25:56.010Z,8.60
2022-09-28T02:28:22.694Z,8.60
2022-09-28T02:30:49.372Z,8.60
2022-09-28T02:33:20.150Z,8.70
2022-09-28T02:35:47.308Z,8.70
2022-09-28T02:38:15.186Z,8.70
2022-09-28T02:40:44.351Z,8.70
2022-09-28T02:43:32.786Z,8.70
2022-09-28T02:46:17.963Z,8.70
2022-09-28T02:49:20.957Z,8.70
2022-09-28T02:51:58.246Z,8.70
2022-09-28T02:54:24.880Z,8.70
2022-09-28T02:56:58.657Z,8.70
2022-09-28T03:00:00.212Z,8.70
2022-09-28T03:02:48.634Z,8.70
2022-09-28T03:05:19.888Z,8.80
2022-09-28T03:07:59.514Z,8.80
2022-09-28T03:10:33.907Z,8.80
2022-09-28T03:13:00.967Z,8.70
2022-09-28T03:15:29.878Z,8.50
2022-09-28T03:17:57.972Z,8.40
2022-09-28T03:20:25.811Z,8.20
2022-09-28T03:23:12.742Z,8.10
2022-09-28T03:25:39.522Z,8.00
2022-09-28T03:28:06.194Z,8.00
2022-09-28T03:30:32.833Z,7.90
2022-09-28T03:33:00.411Z,7.90
2022-09-28T03:35:27.108Z,7.90
2022-09-28T03:37:57.111Z,7.80
2022-09-28T03:40:23.935Z,7.80
2022-09-28T03:42:50.812Z,7.70
2022-09-28T03:45:17.459Z,7.80
2022-09-28T03:47:47.610Z,7.70
2022-09-28T03:50:15.591Z,7.70
2022-09-28T03:52:42.499Z,7.60
2022-09-28T03:55:09.846Z,7.60
2022-09-28T03:57:36.947Z,7.60
2022-09-28T04:00:05.521Z,7.50
2022-09-28T04:02:33.534Z,7.50
2022-09-28T04:05:00.280Z,7.50
2022-09-28T04:07:30.906Z,7.50
2022-09-28T04:09:58.211Z,7.50
2022-09-28T04:12:24.948Z,7.40
2022-09-28T04:14:51.615Z,7.40
2022-09-28T04:17:18.396Z,7.50
2022-09-28T04:19:45.107Z,7.50
2022-09-28T04:22:11.795Z,7.50
2022-09-28T04:24:39.096Z,7.40
2022-09-28T04:27:24.280Z,7.50
2022-09-28T04:29:50.892Z,7.50
2022-09-28T04:32:17.598Z,7.50
2022-09-28T04:34:44.627Z,7.50
2022-09-28T04:37:11.436Z,7.50
2022-09-28T04:39:38.179Z,7.50
2022-09-28T04:42:05.570Z,7.50
2022-09-28T04:44:32.311Z,7.50
2022-09-28T04:47:01.751Z,7.50
2022-09-28T04:49:31.751Z,7.50
2022-09-28T04:51:58.413Z,7.50
2022-09-28T04:54:25.060Z,7.50
2022-09-28T04:56:52.881Z,7.60
2022-09-28T04:59:19.560Z,7.50
2022-09-28T05:01:47.503Z,7.60
2022-09-28T05:04:14.141Z,7.60
2022-09-28T05:06:40.970Z,7.60
2022-09-28T05:09:09.455Z,7.60
2022-09-28T05:11:36.195Z,7.60
2022-09-28T05:14:02.857Z,7.60
2022-09-28T05:16:30.990Z,7.60
2022-09-28T05:18:57.765Z,7.60
2022-09-28T05:21:26.338Z,7.60
2022-09-28T05:23:56.112Z,7.60
2022-09-28T05:26:23.182Z,7.60
2022-09-28T05:28:49.852Z,7.60
2022-09-28T05:31:16.704Z,7.60
2022-09-28T05:33:43.449Z,7.60
2022-09-28T05:36:11.133Z,7.60
2022-09-28T05:38:37.926Z,7.60
2022-09-28T05:41:06.683Z,7.60
2022-09-28T05:43:33.988Z,7.70
2022-09-28T05:46:00.773Z,7.70
2022-09-28T05:48:28.264Z,7.70
2022-09-28T05:50:55.155Z,7.70
2022-09-28T05:53:22.125Z,7.70
2022-09-28T05:55:48.909Z,7.70
2022-09-28T05:58:15.807Z,7.70
2022-09-28T06:00:43.038Z,7.70
2022-09-28T06:03:14.097Z,7.70
2022-09-28T06:05:41.173Z,7.80
2022-09-28T06:08:10.490Z,7.70
2022-09-28T06:10:37.420Z,7.70
2022-09-28T06:13:04.153Z,7.70
2022-09-28T06:15:33.627Z,7.70
2022-09-28T06:18:03.760Z,7.70
2022-09-28T06:20:33.285Z,7.70
2022-09-28T06:23:00.303Z,7.70
2022-09-28T06:25:30.018Z,7.70
2022-09-28T06:28:02.325Z,7.60
2022-09-28T06:30:31.027Z,7.50
2022-09-28T06:32:59.376Z,7.40
2022-09-28T06:35:28.364Z,7.30
2022-09-28T06:37:55.037Z,7.20
2022-09-28T06:40:22.415Z,7.20
2022-09-28T06:42:56.126Z,7.20
2022-09-28T06:45:25.293Z,7.10
2022-09-28T06:48:01.953Z,7.20
2022-09-28T06:50:32.318Z,7.20
2022-09-28T06:52:59.848Z,7.30
2022-09-28T06:55:27.333Z,7.30
2022-09-28T06:57:59.493Z,7.30
2022-09-28T07:00:33.870Z,7.40
2022-09-28T07:03:02.611Z,7.40
2022-09-28T07:05:29.968Z,7.50
2022-09-28T07:07:57.207Z,7.50
2022-09-28T07:10:25.231Z,7.50
2022-09-28T07:12:52.251Z,7.50
2022-09-28T07:15:19.358Z,7.50
2022-09-28T07:17:58.657Z,7.50
2022-09-28T07:20:27.898Z,7.50
2022-09-28T07:22:55.619Z,7.60
2022-09-28T07:25:23.385Z,7.60
2022-09-28T07:27:50.143Z,7.60
2022-09-28T07:30:17.138Z,7.60
2022-09-28T07:32:45.720Z,7.60
2022-09-28T07:35:12.510Z,7.70
2022-09-28T07:37:39.225Z,7.70
2022-09-28T07:40:26.682Z,7.80
2022-09-28T07:42:53.792Z,7.80
2022-09-28T07:45:23.785Z,7.80
2022-09-28T07:47:55.341Z,7.90
2022-09-28T07:50:22.450Z,8.00
2022-09-28T07:52:49.416Z,8.00
2022-09-28T07:55:16.206Z,8.10
2022-09-28T07:57:43.259Z,8.10
2022-09-28T08:00:10.807Z,8.20
2022-09-28T08:02:37.805Z,8.20
2022-09-28T08:05:05.217Z,8.20
2022-09-28T08:07:32.546Z,8.20
2022-09-28T08:09:59.226Z,8.20
2022-09-28T08:12:25.979Z,8.20
2022-09-28T08:14:52.706Z,8.30
2022-09-28T08:17:19.443Z,8.20
2022-09-28T08:20:04.836Z,8.20
2022-09-28T08:22:32.308Z,8.20
2022-09-28T08:24:59.093Z,8.20
2022-09-28T08:27:25.855Z,8.20
2022-09-28T08:29:52.630Z,8.20
2022-09-28T08:32:19.883Z,8.30
2022-09-28T08:34:46.578Z,8.30
2022-09-28T08:37:13.356Z,8.40
2022-09-28T08:39:40.113Z,8.40
2022-09-28T08:42:21.939Z,8.50
2022-09-28T08:44:52.135Z,8.60
2022-09-28T08:47:42.308Z,8.60
2022-09-28T08:50:15.050Z,8.70
2022-09-28T08:52:42.374Z,8.80
2022-09-28T08:55:14.779Z,8.80
2022-09-28T08:57:58.134Z,8.90
2022-09-28T09:01:00.836Z,8.90
2022-09-28T09:03:41.892Z,8.90
2022-09-28T09:06:26.868Z,8.90
2022-09-28T09:09:08.487Z,9.00
2022-09-28T09:12:01.960Z,9.10
2022-09-28T09:14:53.677Z,9.20
2022-09-28T09:17:50.001Z,9.20
2022-09-28T09:21:02.344Z,9.20
2022-09-28T09:23:39.253Z,9.10
2022-09-28T09:26:23.805Z,9.10
2022-09-28T09:29:17.045Z,9.10
2022-09-28T09:31:50.149Z,9.10
2022-09-28T09:34:32.984Z,9.00
2022-09-28T09:37:21.628Z,8.90
2022-09-28T09:40:07.386Z,8.90
2022-09-28T09:43:01.562Z,8.80
2022-09-28T09:45:51.461Z,8.80
2022-09-28T09:48:35.355Z,8.90
2022-09-28T09:51:21.494Z,8.90
2022-09-28T09:53:59.973Z,9.00
2022-09-28T09:57:05.376Z,9.00
2022-09-28T09:59:36.518Z,9.10
2022-09-28T10:02:22.718Z,9.10
2022-09-28T10:04:52.649Z,9.10
2022-09-28T10:07:24.854Z,9.20
2022-09-28T10:09:56.277Z,9.30
2022-09-28T10:12:24.017Z,9.30
2022-09-28T10:14:50.904Z,9.40
2022-09-28T10:17:19.758Z,9.40
2022-09-28T10:19:46.664Z,9.50
2022-09-28T10:22:19.627Z,9.60
2022-09-28T10:24:49.765Z,9.70
2022-09-28T10:27:25.714Z,10.00
2022-09-28T10:30:09.630Z,10.10
2022-09-28T10:32:38.929Z,10.20
2022-09-28T10:35:25.123Z,10.20
2022-09-28T10:37:56.691Z,10.20
2022-09-28T10:40:43.409Z,10.30
2022-09-28T10:43:38.379Z,10.20
2022-09-28T10:46:07.718Z,10.10
2022-09-28T10:48:48.865Z,10.20
2022-09-28T10:51:17.057Z,10.20
2022-09-28T10:54:01.505Z,10.10
2022-09-28T10:56:35.468Z,10.30
2022-09-28T10:59:02.209Z,10.50
2022-09-28T11:01:32.976Z,10.70
2022-09-28T11:04:02.317Z,10.80
2022-09-28T11:06:31.465Z,10.80
2022-09-28T11:09:01.083Z,10.80
2022-09-28T11:11:29.581Z,10.80
2022-09-28T11:14:01.064Z,10.80
2022-09-28T11:16:30.705Z,10.70
2022-09-28T11:19:06.074Z,10.70
2022-09-28T11:21:41.994Z,10.80
2022-09-28T11:24:18.861Z,10.80
2022-09-28T11:26:48.533Z,10.80
2022-09-28T11:29:37.936Z,10.90
2022-09-28T11:32:06.331Z,10.80
2022-09-28T11:34:57.867Z,10.80
2022-09-28T11:37:40.564Z,10.70
2022-09-28T11:40:46.392Z,10.50
2022-09-28T11:43:19.191Z,10.60
2022-09-28T11:45:52.616Z,10.70
2022-09-28T11:48:24.980Z,10.90
2022-09-28T11:51:04.394Z,11.10
2022-09-28T11:53:37.174Z,11.30
2022-09-28T11:56:15.622Z,11.30
2022-09-28T11:58:51.075Z,11.30
2022-09-28T12:01:39.273Z,11.30
2022-09-28T12:04:18.467Z,11.30
2022-09-28T12:07:09.091Z,11.30
2022-09-28T12:10:03.764Z,11.30
2022-09-28T12:12:55.043Z,11.30
2022-09-28T12:15:53.041Z,11.30
2022-09-28T12:18:26.144Z,11.30
2022-09-28T12:21:05.084Z,11.40
2022-09-28T12:23:35.735Z,11.40
2022-09-28T12:26:12.612Z,11.50
2022-09-28T12:28:46.158Z,11.60
2022-09-28T12:31:20.521Z,11.60
2022-09-28T12:33:49.430Z,11.60
2022-09-28T12:36:30.149Z,11.50
2022-09-28T12:39:18.961Z,11.50
2022-09-28T12:42:25.457Z,11.40
2022-09-28T12:45:08.665Z,11.40
2022-09-28T12:48:11.579Z,11.40
2022-09-28T12:50:57.427Z,11.40
2022-09-28T12:54:03.174Z,11.30
2022-09-28T12:56:50.639Z,11.20
2022-09-28T12:59:32.307Z,11.10
2022-09-28T13:02:32.685Z,11.00
2022-09-28T13:05:15.564Z,11.00
2022-09-28T13:08:05.127Z,11.00
2022-09-28T13:10:44.407Z,11.00
2022-09-28T13:13:30.487Z,11.10
2022-09-28T13:16:13.198Z,11.10
2022-09-28T13:18:50.156Z,11.20
2022-09-28T13:21:35.169Z,11.20
2022-09-28T13:24:27.850Z,11.20
2022-09-28T13:26:52.708Z,11.20
2022-09-28T13:29:20.507Z,11.30
2022-09-28T13:31:50.679Z,11.30
2022-09-28T13:34:24.984Z,11.30
2022-09-28T13:37:20.379Z,11.30
2022-09-28T13:39:59.012Z,11.30
2022-09-28T13:42:53.171Z,11.30
2022-09-28T13:45:26.054Z,11.30
2022-09-28T13:47:52.739Z,11.30
2022-09-28T13:50:46.528Z,11.30
2022-09-28T13:53:25.965Z,11.20
2022-09-28T13:56:04.649Z,11.30
2022-09-28T13:58:43.765Z,11.20
2022-09-28T14:01:39.817Z,11.10
2022-09-28T14:04:21.830Z,11.10
2022-09-28T14:06:57.705Z,11.10
2022-09-28T14:09:38.977Z,11.10
2022-09-28T14:12:27.159Z,11.10
2022-09-28T14:14:54.158Z,11.00
2022-09-28T14:17:23.835Z,10.90
2022-09-28T14:20:08.150Z,10.90
2022-09-28T14:23:14.192Z,10.90
2022-09-28T14:26:04.006Z,10.90
2022-09-28T14:28:49.212Z,10.80
2022-09-28T14:31:24.614Z,10.70
2022-09-28T14:34:01.237Z,10.70
2022-09-28T14:36:55.607Z,10.70
2022-09-28T14:39:46.649Z,10.60
2022-09-28T14:42:16.542Z,10.70
2022-09-28T14:45:07.203Z,10.70
2022-09-28T14:47:44.529Z,10.70
2022-09-28T14:50:20.452Z,10.70
2022-09-28T14:52:50.883Z,10.60
2022-09-28T14:55:23.689Z,10.60
2022-09-28T14:58:04.400Z,10.60
2022-09-28T15:00:32.015Z,10.60
2022-09-28T15:03:06.735Z,10.60
2022-09-28T15:05:43.796Z,10.60
2022-09-28T15:08:11.986Z,10.60
2022-09-28T15:10:45.236Z,10.70
2022-09-28T15:13:40.721Z,10.60
2022-09-28T15:16:09.905Z,10.60
2022-09-28T15:19:24.339Z,10.70
2022-09-28T15:21:51.470Z,10.60
2022-09-28T15:24:33.766Z,10.60
2022-09-28T15:27:02.050Z,10.50
2022-09-28T15:29:31.481Z,10.50
2022-09-28T15:31:58.937Z,10.40
2022-09-28T15:34:52.709Z,10.40
2022-09-28T15:37:23.191Z,10.40
2022-09-28T15:39:51.889Z,10.40
2022-09-28T15:42:18.962Z,10.40
2022-09-28T15:45:10.724Z,10.40
2022-09-28T15:47:39.916Z,10.40
2022-09-28T15:50:09.219Z,10.40
2022-09-28T15:52:39.776Z,10.40
2022-09-28T15:55:31.929Z,10.40
2022-09-28T15:58:26.298Z,10.40
2022-09-28T16:01:35.863Z,10.40
2022-09-28T16:04:30.865Z,10.40
2022-09-28T16:07:12.536Z,10.50
2022-09-28T16:10:11.642Z,10.60
2022-09-28T16:12:38.248Z,10.70
2022-09-28T16:15:29.569Z,10.70
2022-09-28T16:18:01.452Z,10.60
2022-09-28T16:20:31.992Z,10.50
2022-09-28T16:23:05.966Z,10.40
2022-09-28T16:25:37.099Z,10.30
2022-09-28T16:28:04.320Z,10.20
2022-09-28T16:30:33.578Z,10.20
2022-09-28T16:33:26.712Z,10.10
2022-09-28T16:35:53.357Z,10.10
2022-09-28T16:38:20.888Z,10.10
2022-09-28T16:40:53.752Z,10.00
2022-09-28T16:43:26.895Z,10.00
2022-09-28T16:46:01.250Z,9.90
2022-09-28T16:48:30.356Z,9.90
2022-09-28T16:50:58.082Z,9.80
2022-09-28T16:53:43.828Z,9.70
2022-09-28T16:56:11.454Z,9.70
2022-09-28T16:58:39.118Z,9.70
2022-09-28T17:01:09.764Z,9.60
2022-09-28T17:03:36.623Z,9.50
2022-09-28T17:06:06.273Z,9.50
2022-09-28T17:08:35.483Z,9.40
2022-09-28T17:11:23.393Z,9.30
2022-09-28T17:13:48.904Z,9.20
2022-09-28T17:16:42.657Z,9.10
2022-09-28T17:19:23.538Z,9.10
2022-09-28T17:21:51.642Z,9.10
2022-09-28T17:24:19.254Z,9.00
2022-09-28T17:26:47.456Z,9.00
2022-09-28T17:29:15.411Z,9.00
2022-09-28T17:31:43.297Z,8.90
2022-09-28T17:34:11.376Z,8.90
2022-09-28T17:36:38.162Z,8.80
2022-09-28T17:39:05.414Z,8.80
2022-09-28T17:41:32.518Z,8.70
2022-09-28T17:44:00.168Z,8.70
2022-09-28T17:46:28.464Z,8.70
2022-09-28T17:48:59.365Z,8.60
2022-09-28T17:51:27.755Z,8.60
2022-09-28T17:53:56.097Z,8.50
2022-09-28T17:56:26.403Z,8.50
2022-09-28T17:58:57.344Z,8.50
2022-09-28T18:01:24.134Z,8.50
2022-09-28T18:03:50.951Z,8.40
2022-09-28T18:06:22.694Z,8.40
2022-09-28T18:08:49.981Z,8.40
2022-09-28T18:11:19.376Z,8.30
2022-09-28T18:13:46.927Z,8.30
2022-09-28T18:16:13.898Z,8.30
2022-09-28T18:18:41.006Z,8.20
2022-09-28T18:21:08.302Z,8.20
2022-09-28T18:23:36.782Z,8.20
2022-09-28T18:26:04.251Z,8.10
2022-09-28T18:28:31.185Z,8.10
2022-09-28T18:30:57.955Z,8.10
2022-09-28T18:33:24.630Z,8.10
2022-09-28T18:35:53.513Z,8.00
2022-09-28T18:38:21.078Z,8.00
2022-09-28T18:40:48.382Z,8.00
2022-09-28T18:43:15.418Z,7.90
2022-09-28T18:45:42.181Z,7.90
2022-09-28T18:48:09.106Z,7.80
2022-09-28T18:50:36.113Z,7.70
2022-09-28T18:53:12.365Z,7.70
2022-09-28T18:55:40.497Z,7.60
2022-09-28T18:58:11.532Z,7.60
2022-09-28T19:00:40.267Z,7.50
2022-09-28T19:03:08.097Z,7.50
2022-09-28T19:05:35.049Z,7.50
2022-09-28T19:08:02.253Z,7.50
2022-09-28T19:10:29.086Z,7.50
2022-09-28T19:12:55.779Z,7.50
2022-09-28T19:15:22.759Z,7.50
2022-09-28T19:17:50.128Z,7.50
2022-09-28T19:20:17.054Z,7.50
2022-09-28T19:22:44.265Z,7.50
2022-09-28T19:25:12.590Z,7.50
2022-09-28T19:27:39.472Z,7.50
2022-09-28T19:30:06.985Z,7.50
2022-09-28T19:32:33.679Z,7.50
2022-09-28T19:35:00.481Z,7.50
2022-09-28T19:37:27.125Z,7.50
2022-09-28T19:39:53.857Z,7.50
2022-09-28T19:42:20.622Z,7.50
2022-09-28T19:44:47.488Z,7.50
2022-09-28T19:47:14.190Z,7.50
2022-09-28T19:49:41.594Z,7.50
2022-09-28T19:52:15.622Z,7.50
2022-09-28T19:54:57.235Z,7.40
2022-09-28T19:57:25.896Z,7.40
2022-09-28T19:59:54.979Z,7.40
2022-09-28T20:02:23.603Z,7.40
2022-09-28T20:04:50.705Z,7.40
2022-09-28T20:07:17.455Z,7.40
2022-09-28T20:09:44.282Z,7.40
2022-09-28T20:12:11.201Z,7.40
2022-09-28T20:14:40.271Z,7.40
2022-09-28T20:17:07.668Z,7.40
2022-09-28T20:19:35.072Z,7.30
2022-09-28T20:22:03.018Z,7.40
2022-09-28T20:24:31.277Z,7.30
2022-09-28T20:26:58.182Z,7.30
2022-09-28T20:29:25.155Z,7.30
2022-09-28T20:31:52.040Z,7.30
2022-09-28T20:34:18.927Z,7.30
2022-09-28T20:36:45.598Z,7.40
2022-09-28T20:39:13.057Z,7.30
2022-09-28T20:41:40.290Z,7.20
2022-09-28T20:44:07.702Z,7.20
2022-09-28T20:46:35.311Z,7.20
2022-09-28T20:49:02.599Z,7.10
2022-09-28T20:51:29.307Z,7.10
2022-09-28T20:53:57.347Z,7.20
2022-09-28T20:56:29.173Z,7.20
2022-09-28T20:58:56.836Z,7.10
2022-09-28T21:01:28.630Z,7.10
2022-09-28T21:04:03.083Z,7.10
2022-09-28T21:06:35.423Z,7.10
2022-09-28T21:09:02.907Z,7.10
2022-09-28T21:11:30.039Z,7.10
2022-09-28T21:13:58.563Z,7.20
2022-09-28T21:16:26.715Z,7.10
2022-09-28T21:18:53.625Z,7.10
2022-09-28T21:21:21.320Z,7.20
2022-09-28T21:23:48.920Z,7.20
2022-09-28T21:26:24.618Z,7.20
2022-09-28T21:29:02.916Z,7.20
2022-09-28T21:31:38.536Z,7.20
2022-09-28T21:34:05.347Z,7.20
2022-09-28T21:36:32.094Z,7.20
2022-09-28T21:38:58.850Z,7.20
2022-09-28T21:41:26.037Z,7.20
2022-09-28T21:43:53.071Z,7.20
2022-09-28T21:46:19.888Z,7.20
2022-09-28T21:48:50.460Z,7.30
2022-09-28T21:51:17.650Z,7.20
2022-09-28T21:53:44.332Z,7.30
2022-09-28T21:56:12.298Z,7.30
2022-09-28T21:58:40.162Z,7.30
2022-09-28T22:01:19.447Z,7.30
2022-09-28T22:03:50.440Z,7.30
2022-09-28T22:06:19.003Z,7.30
2022-09-28T22:08:46.827Z,7.30
2022-09-28T22:11:16.161Z,7.30
2022-09-28T22:13:57.175Z,7.30
2022-09-28T22:16:26.494Z,7.30
2022-09-28T22:18:53.484Z,7.30
2022-09-28T22:21:23.480Z,7.30
2022-09-28T22:23:51.023Z,7.30
2022-09-28T22:26:20.853Z,7.30
2022-09-28T22:28:59.001Z,7.30
2022-09-28T22:31:31.751Z,7.30
2022-09-28T22:33:59.098Z,7.30
2022-09-28T22:36:27.821Z,7.20
2022-09-28T22:38:55.438Z,7.30
2022-09-28T22:41:22.411Z,7.30
2022-09-28T22:43:51.537Z,7.30
2022-09-28T22:46:21.190Z,7.30
2022-09-28T22:48:53.010Z,7.30
2022-09-28T22:51:20.292Z,7.30
2022-09-28T22:53:47.348Z,7.30
2022-09-28T22:56:18.825Z,7.40
2022-09-28T22:58:46.304Z,7.30
2022-09-28T23:01:25.023Z,7.30
2022-09-28T23:03:52.926Z,7.20
2022-09-28T23:06:21.437Z,7.30
2022-09-28T23:08:51.323Z,7.30
2022-09-28T23:11:18.757Z,7.30
2022-09-28T23:13:52.825Z,7.40
2022-09-28T23:16:20.542Z,7.40
2022-09-28T23:18:49.383Z,7.40
2022-09-28T23:21:18.775Z,7.50
2022-09-28T23:23:46.526Z,7.50
2022-09-28T23:26:18.538Z,7.60
2022-09-28T23:28:45.622Z,7.60
2022-09-28T23:31:15.854Z,7.70
2022-09-28T23:33:42.814Z,7.70
2022-09-28T23:36:10.741Z,7.80
2022-09-28T23:38:37.619Z,7.80
2022-09-28T23:41:04.460Z,7.80
2022-09-28T23:43:31.291Z,7.80
2022-09-28T23:45:58.019Z,7.80
2022-09-28T23:48:25.166Z,7.80
2022-09-28T23:50:51.808Z,7.80
2022-09-28T23:53:18.506Z,7.80
2022-09-28T23:55:45.369Z,7.70
2022-09-28T23:58:12.369Z,7.70
